Time;durP1;ratioP1;P1;durP2;ratioP2;P2;SDS_P1;SDS_P2;PMS_P1;PMS_P2;Temp;Humidity;BMP_temperature;BMP_pressure;BME280_temperature;BME280_humidity;BME280_pressure;Samples;Min_cycle;Max_cycle;Signal;HPM_P1;HPM_P2
2021/07/22 00:00:09;;;;;;;5.83;4.77;;;22.20;99.90;;;;;;5053637;28;20477;-81
2021/07/22 00:02:37;;;;;;;7.17;4.50;;;22.20;99.90;;;;;;5036096;28;20458;-78
2021/07/22 00:05:08;;;;;;;6.70;4.77;;;22.20;99.90;;;;;;5044488;28;21041;-79
2021/07/22 00:07:38;;;;;;;6.80;5.30;;;22.10;99.90;;;;;;5015863;28;20457;-78
2021/07/22 00:10:07;;;;;;;6.10;4.80;;;22.10;99.90;;;;;;5034354;28;20478;-79
2021/07/22 00:12:35;;;;;;;6.40;4.53;;;22.10;99.90;;;;;;5052398;28;20446;-81
2021/07/22 00:15:03;;;;;;;7.30;4.40;;;22.00;99.90;;;;;;5053720;28;20447;-80
2021/07/22 00:17:32;;;;;;;5.30;4.80;;;22.00;99.90;;;;;;5052651;28;20462;-77
2021/07/22 00:20:01;;;;;;;6.30;4.60;;;22.00;99.90;;;;;;5044427;28;21061;-79
2021/07/22 00:22:29;;;;;;;5.10;4.60;;;22.00;99.90;;;;;;5053528;28;20444;-77
2021/07/22 00:24:59;;;;;;;7.40;5.00;;;22.00;99.90;;;;;;5053089;28;20519;-79
2021/07/22 00:27:27;;;;;;;9.00;5.10;;;21.90;99.90;;;;;;5051938;28;20443;-78
2021/07/22 00:29:55;;;;;;;4.47;4.03;;;21.90;99.90;;;;;;5032664;28;20509;-77
2021/07/22 00:32:23;;;;;;;5.60;5.10;;;21.90;99.90;;;;;;5030511;28;20441;-79
2021/07/22 00:34:52;;;;;;;6.90;5.23;;;21.90;99.90;;;;;;5053540;28;20442;-79
2021/07/22 00:37:20;;;;;;;7.83;5.80;;;21.90;99.90;;;;;;5035112;28;21038;-81
2021/07/22 00:39:48;;;;;;;6.80;4.90;;;21.90;99.90;;;;;;5027721;28;20888;-82
2021/07/22 00:42:17;;;;;;;6.93;5.23;;;21.80;99.90;;;;;;5035479;28;20455;-81
2021/07/22 00:44:45;;;;;;;5.57;4.77;;;21.70;99.90;;;;;;5053575;28;20541;-79
2021/07/22 00:47:13;;;;;;;7.57;5.10;;;21.70;99.90;;;;;;5052587;28;20912;-79
2021/07/22 00:49:44;;;;;;;6.63;5.53;;;21.70;99.90;;;;;;5038454;28;20475;-78
2021/07/22 00:52:12;;;;;;;5.20;4.30;;;21.70;99.90;;;;;;5046196;28;20440;-80
2021/07/22 00:54:40;;;;;;;7.70;5.30;;;21.60;99.90;;;;;;5035345;28;20522;-79
2021/07/22 00:57:08;;;;;;;6.57;5.33;;;21.60;99.90;;;;;;5052514;28;20980;-81
2021/07/22 00:59:38;;;;;;;6.40;4.83;;;21.60;99.90;;;;;;5041626;28;20450;-79
2021/07/22 01:02:06;;;;;;;7.37;5.27;;;21.50;99.90;;;;;;5046735;28;20935;-78
2021/07/22 01:04:35;;;;;;;5.53;5.00;;;21.60;99.90;;;;;;5051406;28;20467;-79
2021/07/22 01:07:03;;;;;;;5.30;4.70;;;21.50;99.90;;;;;;5035886;28;20444;-78
2021/07/22 01:09:31;;;;;;;5.43;4.30;;;21.50;99.90;;;;;;5042755;28;20966;-78
2021/07/22 01:11:59;;;;;;;5.20;4.70;;;21.60;99.90;;;;;;5045857;28;20452;-79
2021/07/22 01:14:27;;;;;;;4.93;4.37;;;21.50;99.90;;;;;;5035284;28;21049;-79
2021/07/22 01:16:57;;;;;;;5.23;4.73;;;21.50;99.90;;;;;;5051837;28;20501;-78
2021/07/22 01:19:25;;;;;;;5.00;4.50;;;21.50;99.90;;;;;;5052814;28;20472;-78
2021/07/22 01:21:54;;;;;;;6.13;5.30;;;21.50;99.90;;;;;;5037520;28;20460;-80
2021/07/22 01:24:23;;;;;;;6.13;5.10;;;21.50;99.90;;;;;;5015715;28;20514;-80
2021/07/22 01:26:51;;;;;;;6.17;5.57;;;21.50;99.90;;;;;;5024617;28;20446;-80
2021/07/22 01:29:19;;;;;;;4.93;4.20;;;21.40;99.90;;;;;;5029880;28;20479;-78
2021/07/22 01:31:47;;;;;;;6.33;4.73;;;21.40;99.90;;;;;;5039174;28;20451;-79
2021/07/22 01:34:15;;;;;;;5.40;4.40;;;21.40;99.90;;;;;;5053241;28;20454;-79
2021/07/22 01:36:43;;;;;;;11.30;5.07;;;21.40;99.90;;;;;;5052234;28;20448;-79
2021/07/22 01:39:12;;;;;;;4.70;4.20;;;21.40;99.90;;;;;;5051504;28;20480;-80
2021/07/22 01:41:40;;;;;;;4.10;3.77;;;21.40;99.90;;;;;;5032637;28;20546;-80
2021/07/22 01:44:09;;;;;;;7.00;3.93;;;21.30;99.90;;;;;;5043491;28;20455;-80
2021/07/22 01:46:37;;;;;;;6.10;4.40;;;21.30;99.90;;;;;;5041486;28;20493;-79
2021/07/22 01:49:05;;;;;;;4.23;3.60;;;21.30;99.90;;;;;;5054267;28;20522;-79
2021/07/22 01:51:33;;;;;;;5.87;4.40;;;21.30;99.90;;;;;;5052615;28;20521;-79
2021/07/22 01:54:01;;;;;;;6.43;3.83;;;21.20;99.90;;;;;;5053904;28;20448;-79
2021/07/22 01:56:31;;;;;;;5.40;4.87;;;21.20;99.90;;;;;;5032913;28;21011;-79
2021/07/22 01:58:59;;;;;;;6.30;4.67;;;21.20;99.90;;;;;;5046471;28;20472;-80
2021/07/22 02:01:27;;;;;;;4.63;4.13;;;21.20;99.90;;;;;;5054062;28;20470;-80
2021/07/22 02:03:56;;;;;;;6.33;5.20;;;21.10;99.90;;;;;;5052324;28;20448;-79
2021/07/22 02:06:24;;;;;;;5.90;4.47;;;21.10;99.90;;;;;;5035711;28;20444;-78
2021/07/22 02:08:52;;;;;;;4.90;4.40;;;21.10;99.90;;;;;;5034062;28;21137;-81
2021/07/22 02:11:20;;;;;;;6.03;4.33;;;21.10;99.90;;;;;;5046606;28;21004;-80
2021/07/22 02:13:50;;;;;;;5.53;5.00;;;21.10;99.90;;;;;;5014492;28;20456;-78
2021/07/22 02:16:18;;;;;;;6.43;4.93;;;21.00;99.90;;;;;;5029606;28;20463;-77
2021/07/22 02:18:46;;;;;;;5.30;4.50;;;21.00;99.90;;;;;;5030680;28;20472;-79
2021/07/22 02:21:14;;;;;;;5.90;5.30;;;21.00;99.90;;;;;;5038541;28;20483;-79
2021/07/22 02:23:43;;;;;;;5.17;4.63;;;21.00;99.90;;;;;;5036321;28;20513;-78
2021/07/22 02:26:11;;;;;;;4.67;4.23;;;21.00;99.90;;;;;;5052298;28;20460;-79
2021/07/22 02:28:39;;;;;;;5.20;4.63;;;21.00;99.90;;;;;;5051105;28;20454;-78
2021/07/22 02:31:08;;;;;;;5.23;4.70;;;20.90;99.90;;;;;;5051994;28;20554;-79
2021/07/22 02:33:36;;;;;;;5.53;4.60;;;20.90;99.90;;;;;;5052487;28;20459;-79
2021/07/22 02:36:05;;;;;;;5.67;4.70;;;20.90;99.90;;;;;;5040075;28;20448;-79
2021/07/22 02:38:33;;;;;;;5.50;4.20;;;20.90;99.90;;;;;;5046539;28;20459;-78
2021/07/22 02:41:01;;;;;;;5.90;5.10;;;20.90;99.90;;;;;;5051716;28;20462;-79
2021/07/22 02:43:29;;;;;;;5.40;4.90;;;20.90;99.90;;;;;;5039238;28;20472;-78
2021/07/22 02:45:58;;;;;;;7.63;4.90;;;20.80;99.90;;;;;;5037929;28;20448;-80
2021/07/22 02:48:27;;;;;;;4.03;3.63;;;20.80;99.90;;;;;;5054022;28;20447;-80
2021/07/22 02:50:55;;;;;;;5.20;4.70;;;20.80;99.90;;;;;;5041776;28;20468;-78
2021/07/22 02:53:23;;;;;;;4.80;4.00;;;20.70;99.90;;;;;;5039359;28;20882;-81
2021/07/22 02:55:55;;;;;;;5.73;4.03;;;20.70;99.90;;;;;;5056104;28;20436;-80
2021/07/22 02:58:23;;;;;;;6.70;5.23;;;20.70;99.90;;;;;;5056485;28;20537;-81
2021/07/22 03:00:51;;;;;;;5.23;4.67;;;20.70;99.90;;;;;;5055877;28;20481;-78
2021/07/22 03:03:20;;;;;;;6.73;5.33;;;20.60;99.90;;;;;;5045304;28;20443;-80
2021/07/22 03:05:49;;;;;;;8.70;5.77;;;20.60;99.90;;;;;;5045961;28;20448;-79
2021/07/22 03:08:17;;;;;;;6.17;5.10;;;20.60;99.90;;;;;;5054207;28;20463;-79
2021/07/22 03:10:45;;;;;;;6.53;5.10;;;20.60;99.90;;;;;;5054209;28;20460;-79
2021/07/22 03:13:14;;;;;;;4.97;4.57;;;20.50;99.90;;;;;;5048890;28;20460;-80
2021/07/22 03:15:42;;;;;;;9.23;5.10;;;20.50;99.90;;;;;;5044654;28;21079;-78
2021/07/22 03:18:10;;;;;;;6.80;5.13;;;20.50;99.90;;;;;;5046819;28;20456;-79
2021/07/22 03:20:39;;;;;;;4.87;4.37;;;20.50;99.90;;;;;;5040313;28;20505;-79
2021/07/22 03:23:08;;;;;;;10.20;5.60;;;20.50;99.90;;;;;;5049267;28;21121;-78
2021/07/22 03:25:37;;;;;;;6.83;5.10;;;20.50;99.90;;;;;;5025717;28;20982;-78
2021/07/22 03:28:05;;;;;;;5.23;4.73;;;20.50;99.90;;;;;;5035836;28;20436;-78
2021/07/22 03:30:34;;;;;;;5.80;4.80;;;20.40;99.90;;;;;;5054766;28;20460;-79
2021/07/22 03:33:02;;;;;;;4.43;3.80;;;20.40;99.90;;;;;;5023352;28;20499;-79
2021/07/22 03:35:30;;;;;;;4.97;4.50;;;20.40;99.90;;;;;;5054563;28;20444;-79
2021/07/22 03:38:00;;;;;;;5.50;4.70;;;20.40;99.90;;;;;;5055910;28;20505;-80
2021/07/22 03:40:30;;;;;;;5.33;4.80;;;20.40;99.90;;;;;;5035702;28;20515;-79
2021/07/22 03:42:58;;;;;;;5.80;4.90;;;20.40;99.90;;;;;;5045850;28;20483;-81
2021/07/22 03:45:26;;;;;;;5.40;4.70;;;20.40;99.90;;;;;;5054472;28;20447;-79
2021/07/22 03:47:54;;;;;;;6.77;4.60;;;20.40;99.90;;;;;;5037285;28;20517;-79
2021/07/22 03:50:22;;;;;;;5.80;5.30;;;20.40;99.90;;;;;;5056218;28;20456;-79
2021/07/22 03:52:55;;;;;;;5.70;4.67;;;20.40;99.90;;;;;;5055935;28;20439;-78
2021/07/22 03:55:24;;;;;;;6.60;5.27;;;20.30;99.90;;;;;;5045528;28;20820;-78
2021/07/22 03:57:55;;;;;;;6.20;5.20;;;20.30;99.90;;;;;;5054953;28;20450;-80
2021/07/22 04:00:24;;;;;;;5.90;4.77;;;20.30;99.90;;;;;;5025695;28;20502;-79
2021/07/22 04:03:02;;;;;;;6.10;5.03;;;20.30;99.90;;;;;;5054995;28;20951;-80
2021/07/22 04:05:30;;;;;;;5.77;5.13;;;20.20;99.90;;;;;;5053586;28;20973;-80
2021/07/22 04:07:59;;;;;;;5.40;4.90;;;20.20;99.90;;;;;;5053649;28;20515;-80
2021/07/22 04:10:28;;;;;;;5.13;4.63;;;20.20;99.90;;;;;;5053542;28;20464;-79
2021/07/22 04:12:59;;;;;;;4.60;4.10;;;20.20;99.90;;;;;;5044585;28;20966;-80
2021/07/22 04:15:29;;;;;;;7.90;5.20;;;20.20;99.90;;;;;;5044833;28;21034;-82
2021/07/22 04:17:59;;;;;;;6.23;5.00;;;20.20;99.90;;;;;;5034871;28;20509;-79
2021/07/22 04:20:28;;;;;;;5.20;4.70;;;20.20;99.90;;;;;;5055393;28;20483;-79
2021/07/22 04:22:59;;;;;;;4.97;4.43;;;20.20;99.90;;;;;;5054798;28;20506;-80
2021/07/22 04:25:27;;;;;;;7.33;5.37;;;20.10;99.90;;;;;;5048458;28;20498;-80
2021/07/22 04:27:55;;;;;;;5.80;4.20;;;20.10;99.90;;;;;;5055037;28;20432;-81
2021/07/22 04:30:25;;;;;;;5.80;4.97;;;20.10;99.90;;;;;;5054196;28;20475;-81
2021/07/22 04:32:58;;;;;;;7.97;4.70;;;20.10;99.90;;;;;;5055603;28;21026;-80
2021/07/22 04:35:26;;;;;;;7.30;4.63;;;20.10;99.90;;;;;;5055537;28;20981;-80
2021/07/22 04:37:54;;;;;;;5.43;4.87;;;20.10;99.90;;;;;;5050533;28;20508;-83
2021/07/22 04:40:22;;;;;;;6.80;4.67;;;20.10;99.90;;;;;;5061054;28;20562;-84
2021/07/22 04:42:50;;;;;;;7.70;5.00;;;20.10;99.90;;;;;;5056792;28;20458;-81
2021/07/22 04:45:18;;;;;;;7.17;5.20;;;20.20;99.90;;;;;;5044823;28;20459;-83
2021/07/22 04:47:48;;;;;;;7.00;4.87;;;20.10;99.90;;;;;;5052670;28;20447;-82
2021/07/22 04:50:16;;;;;;;6.60;5.13;;;20.20;99.90;;;;;;5042323;28;20467;-80
2021/07/22 04:52:44;;;;;;;6.30;4.70;;;20.20;99.90;;;;;;5066283;28;20438;-83
2021/07/22 04:55:12;;;;;;;7.57;5.07;;;20.20;99.90;;;;;;5054936;28;20463;-79
2021/07/22 04:57:41;;;;;;;5.80;5.30;;;20.20;99.90;;;;;;5051757;28;20799;-80
2021/07/22 05:00:09;;;;;;;7.03;5.60;;;20.30;99.90;;;;;;5059722;28;20483;-80
2021/07/22 05:02:37;;;;;;;7.00;5.80;;;20.30;99.90;;;;;;5032716;28;20456;-79
2021/07/22 05:05:08;;;;;;;6.43;5.20;;;20.30;99.90;;;;;;5034859;28;20448;-81
2021/07/22 05:07:36;;;;;;;7.50;6.47;;;20.40;99.90;;;;;;5057835;28;20450;-81
2021/07/22 05:10:05;;;;;;;6.97;5.77;;;20.40;99.90;;;;;;5049478;28;20470;-80
2021/07/22 05:12:33;;;;;;;7.17;5.40;;;20.40;99.90;;;;;;5049986;28;20455;-81
2021/07/22 05:15:01;;;;;;;7.13;5.90;;;20.40;99.90;;;;;;5048361;28;20779;-80
2021/07/22 05:17:29;;;;;;;6.30;5.63;;;20.30;99.90;;;;;;5066900;28;20496;-79
2021/07/22 05:19:57;;;;;;;6.07;5.43;;;20.30;99.90;;;;;;5054575;28;20493;-78
2021/07/22 05:22:27;;;;;;;8.50;5.83;;;20.30;99.90;;;;;;5064345;28;20454;-79
2021/07/22 05:24:55;;;;;;;5.80;5.20;;;20.20;99.90;;;;;;5052015;28;20524;-79
2021/07/22 05:27:23;;;;;;;8.40;5.27;;;20.20;99.90;;;;;;5049944;28;20455;-81
2021/07/22 05:29:51;;;;;;;6.80;5.60;;;20.20;99.90;;;;;;5061436;28;20536;-80
2021/07/22 05:32:19;;;;;;;6.77;5.47;;;20.40;99.90;;;;;;5053480;28;20451;-80
2021/07/22 05:34:47;;;;;;;7.37;5.67;;;20.50;99.90;;;;;;5048431;28;20483;-81
2021/07/22 05:37:15;;;;;;;7.20;6.00;;;20.50;99.90;;;;;;5045520;28;20447;-79
2021/07/22 05:39:45;;;;;;;6.70;5.70;;;20.50;99.90;;;;;;5061406;28;20998;-79
2021/07/22 05:42:13;;;;;;;5.43;4.90;;;20.60;99.90;;;;;;5055511;28;21075;-80
2021/07/22 05:44:42;;;;;;;6.67;5.83;;;20.70;99.90;;;;;;5026634;28;20457;-81
2021/07/22 05:47:11;;;;;;;6.37;5.50;;;20.80;99.90;;;;;;5031073;28;20524;-79
2021/07/22 05:49:40;;;;;;;9.50;6.03;;;20.80;99.90;;;;;;5044685;28;20526;-79
2021/07/22 05:52:08;;;;;;;6.40;5.80;;;20.80;99.90;;;;;;5038829;28;20457;-78
2021/07/22 05:54:36;;;;;;;8.43;5.17;;;20.90;99.90;;;;;;5053036;28;20823;-79
2021/07/22 05:57:06;;;;;;;7.17;5.10;;;20.90;99.90;;;;;;5048696;28;20462;-80
2021/07/22 05:59:34;;;;;;;7.57;5.60;;;20.90;99.90;;;;;;5044832;28;20483;-80
2021/07/22 06:02:05;;;;;;;6.93;6.23;;;20.90;99.90;;;;;;5034618;28;21064;-79
2021/07/22 06:04:33;;;;;;;6.90;5.87;;;21.00;99.90;;;;;;5052592;28;20455;-79
2021/07/22 06:07:01;;;;;;;7.30;5.30;;;21.00;99.90;;;;;;5053731;28;20452;-79
2021/07/22 06:09:29;;;;;;;6.20;5.60;;;21.00;99.90;;;;;;5048618;28;20487;-77
2021/07/22 06:11:57;;;;;;;11.23;5.70;;;21.00;99.90;;;;;;5096936;22;20569;-83
2021/07/22 06:14:27;;;;;;;7.57;5.50;;;21.10;99.90;;;;;;5028161;28;20457;-83
2021/07/22 06:16:55;;;;;;;5.77;4.90;;;21.10;99.90;;;;;;5048048;28;20464;-83
2021/07/22 06:19:23;;;;;;;5.43;4.83;;;21.20;99.90;;;;;;5027891;28;20448;-84
2021/07/22 06:21:51;;;;;;;6.83;5.07;;;21.30;99.90;;;;;;5050429;28;20479;-82
2021/07/22 06:24:19;;;;;;;5.00;4.50;;;21.30;99.90;;;;;;5043052;28;20982;-81
2021/07/22 06:26:47;;;;;;;11.50;5.23;;;21.40;99.90;;;;;;5013690;28;20463;-82
2021/07/22 06:29:16;;;;;;;7.83;5.53;;;21.40;99.90;;;;;;5015525;28;20456;-82
2021/07/22 06:31:45;;;;;;;7.30;5.40;;;21.50;99.90;;;;;;5016858;28;20460;-82
2021/07/22 06:34:13;;;;;;;7.43;4.90;;;21.60;99.90;;;;;;5009870;28;20455;-83
2021/07/22 06:36:41;;;;;;;9.03;5.33;;;21.70;99.90;;;;;;5014737;28;20507;-82
2021/07/22 06:39:09;;;;;;;6.20;5.13;;;21.60;99.90;;;;;;5041229;28;20480;-83
2021/07/22 06:41:37;;;;;;;5.30;4.77;;;21.70;99.90;;;;;;5019714;28;20475;-83
2021/07/22 06:44:06;;;;;;;4.33;3.90;;;21.80;99.90;;;;;;5041850;28;20473;-83
2021/07/22 06:46:34;;;;;;;3.80;3.50;;;21.90;99.90;;;;;;5033377;28;20467;-81
2021/07/22 06:49:04;;;;;;;7.63;4.33;;;22.00;99.90;;;;;;5032629;28;20972;-82
2021/07/22 06:51:32;;;;;;;4.60;4.20;;;22.10;99.90;;;;;;5037205;28;20525;-83
2021/07/22 06:54:01;;;;;;;5.73;5.10;;;22.10;99.90;;;;;;5029855;28;20532;-83
2021/07/22 06:56:29;;;;;;;4.77;4.23;;;22.20;99.90;;;;;;5031992;28;20440;-83
2021/07/22 06:58:57;;;;;;;5.73;4.90;;;22.30;99.90;;;;;;5044933;28;20454;-82
2021/07/22 07:01:25;;;;;;;4.57;4.17;;;22.50;99.90;;;;;;5041759;28;20490;-82
2021/07/22 07:03:53;;;;;;;5.57;3.90;;;22.60;99.90;;;;;;5035302;28;20460;-83
2021/07/22 07:06:22;;;;;;;4.43;4.00;;;22.70;99.90;;;;;;5031934;28;20468;-83
2021/07/22 07:08:50;;;;;;;6.73;4.73;;;22.80;99.90;;;;;;5018844;28;20451;-81
2021/07/22 07:11:18;;;;;;;4.37;3.87;;;22.90;99.90;;;;;;5037339;28;20478;-82
2021/07/22 07:13:47;;;;;;;6.17;4.87;;;23.10;99.90;;;;;;5021234;28;20439;-81
2021/07/22 07:16:15;;;;;;;6.43;5.20;;;23.10;99.90;;;;;;5030518;28;20546;-82
2021/07/22 07:18:43;;;;;;;4.30;3.90;;;23.30;99.90;;;;;;5023613;28;20447;-82
2021/07/22 07:21:16;;;;;;;4.90;4.50;;;23.60;99.90;;;;;;5035141;28;20475;-80
2021/07/22 07:23:45;;;;;;;6.07;4.60;;;23.70;99.90;;;;;;5026783;28;20452;-82
2021/07/22 07:26:13;;;;;;;6.70;5.37;;;23.70;99.90;;;;;;5046558;28;20521;-82
2021/07/22 07:28:41;;;;;;;5.07;4.60;;;23.70;99.90;;;;;;5031100;28;20575;-81
2021/07/22 07:31:10;;;;;;;8.13;4.77;;;23.70;99.90;;;;;;5035962;28;20480;-78
2021/07/22 07:33:38;;;;;;;4.23;3.83;;;23.70;99.90;;;;;;5021734;28;20517;-81
2021/07/22 07:36:06;;;;;;;4.87;4.47;;;23.70;99.90;;;;;;5025385;28;20976;-82
2021/07/22 07:38:34;;;;;;;4.17;3.87;;;23.80;99.90;;;;;;5031333;28;20818;-83
2021/07/22 07:41:04;;;;;;;6.03;4.27;;;23.80;99.90;;;;;;5032793;28;20498;-83
2021/07/22 07:43:32;;;;;;;5.97;5.30;;;23.80;99.90;;;;;;5011875;28;20449;-83
2021/07/22 07:46:00;;;;;;;5.07;4.37;;;23.80;99.90;;;;;;5027959;28;21046;-81
2021/07/22 07:48:28;;;;;;;5.63;4.17;;;23.80;99.90;;;;;;5031671;28;20508;-81
2021/07/22 07:50:56;;;;;;;6.50;4.30;;;23.90;99.90;;;;;;5031587;28;20476;-79
2021/07/22 07:53:25;;;;;;;4.57;4.17;;;23.90;99.90;;;;;;5012731;28;20524;-79
2021/07/22 07:55:53;;;;;;;5.23;4.70;;;24.00;99.90;;;;;;5042855;28;20452;-81
2021/07/22 07:58:22;;;;;;;6.33;5.03;;;24.00;99.90;;;;;;5030691;28;20457;-81
2021/07/22 08:00:51;;;;;;;5.17;4.63;;;24.10;99.90;;;;;;5032277;28;20468;-82
2021/07/22 08:03:20;;;;;;;4.40;4.00;;;24.10;99.90;;;;;;5029236;28;20460;-82
2021/07/22 08:05:50;;;;;;;5.50;4.47;;;24.20;99.90;;;;;;5034576;28;20448;-83
2021/07/22 08:08:19;;;;;;;4.77;4.27;;;24.20;99.90;;;;;;5032279;28;20448;-82
2021/07/22 08:10:47;;;;;;;12.90;7.63;;;24.20;99.90;;;;;;5018836;28;20483;-81
2021/07/22 08:13:15;;;;;;;14.87;8.97;;;24.20;99.90;;;;;;5011365;28;20514;-80
2021/07/22 08:15:44;;;;;;;5.10;4.60;;;24.20;99.90;;;;;;5029182;28;20441;-81
2021/07/22 08:18:15;;;;;;;5.70;4.30;;;24.30;99.90;;;;;;5029352;28;20456;-81
2021/07/22 08:20:43;;;;;;;5.83;5.10;;;24.40;99.90;;;;;;5031770;28;20460;-80
2021/07/22 08:23:11;;;;;;;5.30;4.40;;;24.40;99.90;;;;;;5038045;28;20566;-81
2021/07/22 08:25:40;;;;;;;4.57;4.17;;;24.40;99.90;;;;;;5013650;28;21023;-82
2021/07/22 08:28:11;;;;;;;7.77;4.70;;;24.50;99.90;;;;;;5027162;28;20460;-82
2021/07/22 08:30:39;;;;;;;6.27;5.37;;;24.50;99.90;;;;;;5014851;28;20456;-82
2021/07/22 08:33:08;;;;;;;5.23;4.73;;;24.60;99.90;;;;;;5026889;28;20476;-79
2021/07/22 08:35:36;;;;;;;6.53;4.80;;;24.60;99.90;;;;;;5031694;28;20452;-81
2021/07/22 08:38:05;;;;;;;5.37;4.30;;;24.60;99.90;;;;;;5027428;28;20518;-82
2021/07/22 08:40:33;;;;;;;6.40;5.40;;;24.60;99.90;;;;;;5034003;28;20799;-82
2021/07/22 08:43:04;;;;;;;7.60;4.87;;;24.60;99.90;;;;;;5015395;28;20472;-82
2021/07/22 08:45:32;;;;;;;7.13;5.13;;;24.70;99.90;;;;;;5032978;28;20533;-82
2021/07/22 08:48:01;;;;;;;7.50;5.50;;;24.70;99.90;;;;;;5023146;28;20484;-81
2021/07/22 08:50:30;;;;;;;7.80;5.10;;;24.70;99.90;;;;;;5031242;28;20464;-81
2021/07/22 08:52:58;;;;;;;5.33;4.83;;;24.80;99.90;;;;;;5027679;28;20510;-79
2021/07/22 08:55:27;;;;;;;4.97;4.47;;;24.90;99.90;;;;;;5039069;28;20452;-82
2021/07/22 08:57:57;;;;;;;5.80;4.57;;;24.90;99.90;;;;;;5032593;28;20518;-81
2021/07/22 09:00:26;;;;;;;4.50;4.10;;;24.90;99.90;;;;;;5035229;28;21017;-82
2021/07/22 09:02:55;;;;;;;5.70;5.17;;;24.90;99.90;;;;;;5030068;28;20487;-79
2021/07/22 09:05:28;;;;;;;6.43;5.30;;;24.90;99.90;;;;;;5031912;28;21077;-84
2021/07/22 09:07:58;;;;;;;5.70;5.13;;;25.00;99.90;;;;;;5023041;28;20460;-82
2021/07/22 09:10:26;;;;;;;6.20;4.80;;;25.00;99.90;;;;;;5031702;28;20487;-83
2021/07/22 09:12:55;;;;;;;6.30;4.70;;;25.10;99.90;;;;;;5019922;28;20478;-83
2021/07/22 09:15:25;;;;;;;5.83;5.23;;;25.20;99.90;;;;;;5030165;28;20455;-81
2021/07/22 09:18:22;;;;;;;6.60;5.17;;;25.10;99.90;;;;;;5038989;28;20460;-83
2021/07/22 09:20:51;;;;;;;6.13;5.37;;;25.20;99.90;;;;;;5029413;28;21022;-83
2021/07/22 09:23:22;;;;;;;6.07;4.70;;;25.30;99.90;;;;;;5028934;28;20465;-84
2021/07/22 09:25:52;;;;;;;4.50;3.77;;;25.30;99.90;;;;;;5029202;28;20459;-82
2021/07/22 09:28:21;;;;;;;5.27;4.77;;;25.30;99.90;;;;;;5038028;28;20458;-82
2021/07/22 09:31:00;;;;;;;6.20;5.20;;;25.40;99.90;;;;;;5028699;28;20444;-82
2021/07/22 09:33:36;;;;;;;7.10;5.20;;;25.50;99.90;;;;;;5026527;28;20453;-82
2021/07/22 09:36:06;;;;;;;6.30;4.67;;;25.50;99.90;;;;;;5023278;28;20463;-83
2021/07/22 09:38:36;;;;;;;7.40;5.03;;;25.50;99.90;;;;;;5037240;28;20554;-84
2021/07/22 09:41:04;;;;;;;6.70;5.70;;;25.60;99.90;;;;;;5022088;28;20468;-82
2021/07/22 09:43:38;;;;;;;5.73;5.20;;;25.60;99.90;;;;;;5024242;28;20489;-82
2021/07/22 09:46:07;;;;;;;6.80;6.03;;;25.60;99.90;;;;;;5012313;28;20513;-81
2021/07/22 09:48:37;;;;;;;5.37;4.87;;;25.70;99.90;;;;;;5008771;28;20444;-81
2021/07/22 09:51:05;;;;;;;7.80;4.77;;;25.70;99.90;;;;;;5031180;28;20455;-83
2021/07/22 09:53:33;;;;;;;11.63;6.03;;;25.70;99.90;;;;;;5026948;28;20444;-82
2021/07/22 09:56:03;;;;;;;5.90;5.30;;;25.80;99.90;;;;;;5027161;28;20466;-81
2021/07/22 09:58:31;;;;;;;6.27;5.57;;;25.80;99.90;;;;;;5015163;28;20804;-85
2021/07/22 10:01:02;;;;;;;7.23;5.20;;;25.90;99.90;;;;;;5027548;28;20489;-82
2021/07/22 10:03:33;;;;;;;5.93;5.43;;;25.90;99.90;;;;;;5047013;28;20542;-84
2021/07/22 10:06:08;;;;;;;7.77;5.33;;;25.90;99.90;;;;;;5017621;28;20456;-85
2021/07/22 10:08:38;;;;;;;6.77;4.70;;;26.00;99.90;;;;;;5040137;28;20470;-86
2021/07/22 10:11:08;;;;;;;6.13;5.03;;;26.00;99.90;;;;;;5042648;28;20478;-85
2021/07/22 10:13:39;;;;;;;5.93;5.37;;;26.10;99.90;;;;;;5025277;28;20978;-84
2021/07/22 10:16:12;;;;;;;6.43;5.83;;;26.20;99.90;;;;;;5030602;28;20498;-85
2021/07/22 10:18:45;;;;;;;5.70;4.50;;;26.20;99.90;;;;;;5046197;28;20530;-84
2021/07/22 10:21:13;;;;;;;5.77;5.13;;;26.30;99.90;;;;;;5038451;28;20476;-84
2021/07/22 10:23:42;;;;;;;6.33;5.63;;;26.30;99.90;;;;;;5047597;28;20472;-85
2021/07/22 10:26:12;;;;;;;6.10;5.50;;;26.30;99.90;;;;;;5044066;28;20594;-84
2021/07/22 10:28:40;;;;;;;7.80;6.37;;;26.30;99.90;;;;;;5040450;28;20831;-84
2021/07/22 10:31:09;;;;;;;7.53;6.47;;;26.30;99.90;;;;;;5050335;28;20845;-85
2021/07/22 10:33:40;;;;;;;6.27;5.37;;;26.30;99.90;;;;;;5035020;28;20443;-85
2021/07/22 10:36:10;;;;;;;6.90;5.57;;;26.40;99.90;;;;;;5032482;28;20487;-84
2021/07/22 10:38:46;;;;;;;7.03;6.23;;;26.30;99.90;;;;;;5049925;28;20444;-84
2021/07/22 10:41:36;;;;;;;6.43;5.77;;;26.40;99.90;;;;;;5020085;28;20472;-86
2021/07/22 10:44:06;;;;;;;8.50;5.90;;;26.40;99.90;;;;;;5022061;28;20484;-85
2021/07/22 10:46:55;;;;;;;6.23;5.63;;;26.40;99.90;;;;;;5023272;28;20448;-85
2021/07/22 10:49:38;;;;;;;7.63;6.07;;;26.40;99.90;;;;;;5019298;28;20515;-84
2021/07/22 10:52:07;;;;;;;6.90;6.20;;;26.20;99.90;;;;;;5049813;28;20466;-85
2021/07/22 10:54:48;;;;;;;5.63;5.13;;;26.20;99.90;;;;;;5036077;28;20444;-85
2021/07/22 10:57:47;;;;;;;11.77;7.40;;;26.30;99.90;;;;;;5038926;28;20452;-85
2021/07/22 11:00:34;;;;;;;7.87;6.50;;;26.40;99.90;;;;;;4948663;29;20460;-82
2021/07/22 11:03:03;;;;;;;6.27;5.07;;;26.40;99.90;;;;;;5031176;28;20480;-83
2021/07/22 11:05:57;;;;;;;6.70;6.03;;;26.50;99.90;;;;;;5008309;28;20467;-80
2021/07/22 11:08:26;;;;;;;6.37;5.77;;;26.60;99.90;;;;;;5037172;28;20462;-82
2021/07/22 11:10:56;;;;;;;6.00;5.40;;;26.60;99.90;;;;;;5028803;28;20464;-84
2021/07/22 11:13:46;;;;;;;6.13;5.53;;;26.60;99.90;;;;;;5034229;28;20486;-82
2021/07/22 11:16:22;;;;;;;8.33;7.13;;;26.70;99.90;;;;;;5025214;28;20515;-79
2021/07/22 11:18:55;;;;;;;6.83;6.10;;;26.70;99.90;;;;;;5038461;28;20960;-81
2021/07/22 11:21:29;;;;;;;9.83;6.20;;;26.70;99.90;;;;;;5031823;28;20464;-83
2021/07/22 11:24:09;;;;;;;7.37;6.07;;;26.70;99.90;;;;;;5016622;28;20563;-83
2021/07/22 11:26:38;;;;;;;7.13;6.40;;;26.70;99.90;;;;;;5039398;28;20470;-83
2021/07/22 11:29:16;;;;;;;6.33;5.83;;;26.70;99.90;;;;;;5033415;28;20452;-82
2021/07/22 11:31:46;;;;;;;7.10;6.43;;;26.70;99.90;;;;;;5023262;28;20543;-83
2021/07/22 11:34:15;;;;;;;7.00;6.30;;;26.90;99.90;;;;;;5033194;28;20452;-84
2021/07/22 11:36:44;;;;;;;9.53;5.80;;;26.90;99.90;;;;;;5031229;28;20452;-82
2021/07/22 11:39:12;;;;;;;6.03;5.53;;;26.90;99.90;;;;;;5034842;28;20482;-82
2021/07/22 11:41:41;;;;;;;6.43;5.90;;;27.00;99.90;;;;;;5031193;28;20511;-82
2021/07/22 11:44:10;;;;;;;7.30;6.07;;;27.00;99.90;;;;;;5011609;28;20503;-81
2021/07/22 11:46:45;;;;;;;8.83;6.00;;;26.90;99.90;;;;;;5012311;28;20467;-82
2021/07/22 11:49:15;;;;;;;7.60;6.37;;;26.90;99.90;;;;;;5029914;28;20452;-82
2021/07/22 11:51:45;;;;;;;7.60;6.90;;;26.90;99.90;;;;;;5038011;28;20467;-82
2021/07/22 11:54:14;;;;;;;6.83;6.23;;;26.80;99.90;;;;;;5049371;28;20878;-81
2021/07/22 11:56:43;;;;;;;7.23;6.53;;;26.80;99.90;;;;;;5029825;28;20506;-83
2021/07/22 11:59:12;;;;;;;9.40;7.00;;;26.90;99.90;;;;;;5029875;28;20448;-83
2021/07/22 12:01:50;;;;;;;9.10;6.40;;;26.90;99.90;;;;;;5030646;28;20476;-83
2021/07/22 12:04:26;;;;;;;7.47;6.60;;;27.00;99.90;;;;;;5030528;28;20575;-82
2021/07/22 12:06:55;;;;;;;7.53;6.83;;;27.00;99.90;;;;;;5026343;28;20483;-82
2021/07/22 12:09:24;;;;;;;7.83;6.50;;;27.00;99.90;;;;;;5032371;28;20460;-83
2021/07/22 12:11:53;;;;;;;7.93;6.33;;;27.00;99.90;;;;;;5013097;28;20480;-82
2021/07/22 12:14:27;;;;;;;7.63;6.50;;;27.00;99.90;;;;;;5013406;28;20436;-83
2021/07/22 12:17:00;;;;;;;7.53;6.10;;;27.10;99.90;;;;;;5008910;28;20463;-83
2021/07/22 12:19:32;;;;;;;7.60;6.80;;;27.10;99.90;;;;;;5004426;28;20498;-80
2021/07/22 12:22:21;;;;;;;6.87;6.23;;;27.20;99.90;;;;;;5010108;28;21084;-82
2021/07/22 12:24:51;;;;;;;6.90;5.97;;;27.20;99.90;;;;;;5023558;28;20848;-80
2021/07/22 12:27:27;;;;;;;8.83;7.17;;;27.20;99.90;;;;;;5030577;28;20464;-82
2021/07/22 12:29:55;;;;;;;6.27;5.77;;;27.30;99.90;;;;;;5033663;28;20951;-82
2021/07/22 12:32:25;;;;;;;8.97;7.00;;;27.20;99.90;;;;;;5034280;28;20469;-82
2021/07/22 12:34:53;;;;;;;7.53;6.77;;;27.20;99.90;;;;;;5034658;28;20460;-83
2021/07/22 12:37:21;;;;;;;7.10;5.97;;;27.20;99.90;;;;;;5026926;28;20534;-83
2021/07/22 12:39:49;;;;;;;7.47;6.07;;;27.20;99.90;;;;;;5019343;28;20509;-79
2021/07/22 12:42:17;;;;;;;6.67;6.03;;;27.30;99.90;;;;;;5028925;28;20477;-81
2021/07/22 12:44:46;;;;;;;7.87;7.03;;;27.30;99.90;;;;;;5022295;28;20483;-81
2021/07/22 12:47:29;;;;;;;7.07;6.23;;;27.30;99.90;;;;;;5026968;28;20456;-82
2021/07/22 12:49:58;;;;;;;7.83;6.60;;;27.40;99.90;;;;;;5031679;28;20448;-82
2021/07/22 12:52:27;;;;;;;7.93;6.67;;;27.40;99.90;;;;;;5021722;28;21093;-82
2021/07/22 12:54:59;;;;;;;8.33;7.53;;;27.40;99.90;;;;;;5033095;28;20452;-82
2021/07/22 12:57:38;;;;;;;7.33;6.10;;;27.30;99.90;;;;;;5042954;28;20452;-83